FW2703 Weather Reports


Display with metric or nautical units.
time (UTC)temp
F
wind
direction
speed
MPH
gust
MPH
rain 1hr
in
rain 24hr
in
rain mn
in
humidity
%
barometer
mb
20230206161017 39 293 3.0 8.0 0.00 0.00 0.00 21 1008.8
20230206160017 38 270 2.0 4.0 0.00 0.00 0.00 21 1008.5
20230206155017 38 225 3.0 5.0 0.00 0.00 0.00 22 1008.4
20230206154037 38 225 1.0 3.0 0.00 0.00 0.00 24 1008.7
20230206153019 38 293 4.0 6.0 0.00 0.00 0.00 20 1008.6
20230206152017 37 225 1.0 2.0 0.00 0.00 0.00 25 1008.6
20230206151017 37 203 3.0 5.0 0.00 0.00 0.00 29 1008.4
20230206150038 36 270 4.0 7.0 0.00 0.00 0.00 30 1008.3
20230206145017 36 68 2.0 3.0 0.00 0.00 0.00 34 1008.2
20230206144017 36 129 0.0 0.0 0.00 0.00 0.00 33 1007.9
20230206143016 37 129 0.0 0.0 0.00 0.00 0.00 32 1008.0
20230206142018 38 165 0.0 0.0 0.00 0.00 0.00 25 1008.2
20230206141016 39 158 0.0 1.0 0.00 0.00 0.00 24 1008.5
20230206140016 39 225 5.0 7.0 0.00 0.00 0.00 22 1008.5
20230206135016 39 293 5.0 8.0 0.00 0.00 0.00 19 1008.4
20230206134018 39 274 0.0 0.0 0.00 0.00 0.00 20 1008.6
20230206133036 40 315 3.0 8.0 0.00 0.00 0.00 22 1008.4
20230206132016 40 338 0.0 1.0 0.00 0.00 0.00 20 1008.6
20230206131019 40 315 3.0 4.0 0.00 0.00 0.00 20 1008.4
20230206130016 39 315 9.0 16.0 0.00 0.00 0.00 22 1008.5
20230206125018 39 293 2.0 3.0 0.00 0.00 0.00 24 1008.2
20230206124016 39 270 0.0 1.0 0.00 0.00 0.00 24 1008.4
20230206123016 39 225 1.0 4.0 0.00 0.00 0.00 26 1008.6
20230206122016 39 225 2.0 5.0 0.00 0.00 0.00 27 1008.9
20230206121018 39 293 3.0 7.0 0.00 0.00 0.00 28 1008.8
20230206120016 39 270 4.0 10.0 0.00 0.00 0.00 29 1009.1
20230206115016 39 315 2.0 4.0 0.00 0.00 0.00 30 1009.1
20230206114018 39 225 5.0 10.0 0.00 0.00 0.00 31 1009.0
20230206113016 39 315 7.0 13.0 0.00 0.00 0.00 30 1009.1
20230206112018 40 270 2.0 4.0 0.00 0.00 0.00 32 1009.3
20230206111016 40 270 5.0 10.0 0.00 0.00 0.00 33 1009.1
20230206110018 40 225 7.0 12.0 0.00 0.00 0.00 34 1009.3
20230206105016 41 225 8.0 16.0 0.00 0.00 0.00 35 1008.9
20230206104020 42 225 2.0 4.0 0.00 0.00 0.00 34 1009.0
20230206103018 43 248 7.0 15.0 0.00 0.00 0.00 34 1009.7
20230206102020 44 270 6.0 15.0 0.00 0.00 0.00 34 1009.8
20230206101018 45 270 5.0 12.0 0.00 0.00 0.00 30 1009.7
20230206100018 45 293 5.0 9.0 0.00 0.00 0.00 30 1009.5
20230206095018 45 248 7.0 12.0 0.00 0.00 0.00 30 1009.6
20230206094018 45 293 7.0 10.0 0.00 0.00 0.00 30 1009.1
20230206093020 45 225 4.0 8.0 0.00 0.00 0.00 29 1009.6
20230206092018 45 248 3.0 6.0 0.00 0.00 0.00 29 1010.0
20230206091018 45 248 3.0 6.0 0.00 0.00 0.00 29 1010.2
20230206090018 45 270 3.0 8.0 0.00 0.00 0.00 28 1010.3
20230206085118 45 270 6.0 9.0 0.00 0.00 0.00 28 1010.3
20230206084039 45 270 6.0 15.0 0.00 0.00 0.00 29 1010.4
20230206083018 44 270 4.0 8.0 0.00 0.00 0.00 31 1010.6
20230206082040 44 248 5.0 8.0 0.00 0.00 0.00 32 1010.8
20230206081018 43 270 6.0 9.0 0.00 0.00 0.00 34 1011.2
20230206080020 42 270 2.0 4.0 0.00 0.00 0.00 37 1011.1
20230206075019 42 293 4.0 6.0 0.00 0.00 0.00 37 1011.3
20230206074018 42 270 5.0 9.0 0.00 0.00 0.00 38 1011.7
20230206073018 42 293 6.0 9.0 0.00 0.00 0.00 37 1011.7
20230206072019 42 293 4.0 8.0 0.00 0.00 0.00 35 1011.9
20230206071018 42 248 6.0 18.0 0.00 0.00 0.00 34 1012.1
20230206070231 43 248 5.0 9.0 0.00 0.00 0.00 33 1012.2
20230206065017 43 293 3.0 5.0 0.00 0.00 0.00 31 1012.4
20230206064017 43 270 4.0 6.0 0.00 0.00 0.00 30 1012.6
20230206063017 44 248 2.0 3.0 0.00 0.00 0.00 28 1012.6
20230206062017 44 270 3.0 3.0 0.00 0.00 0.00 25 1012.7
20230206061017 44 293 4.0 6.0 0.00 0.00 0.00 23 1012.2
20230206060017 45 270 2.0 3.0 0.00 0.00 0.00 20 1012.3
20230206055017 45 293 3.0 6.0 0.00 0.00 0.00 20 1012.2
20230206054017 45 293 3.0 5.0 0.00 0.00 0.00 19 1012.1
20230206053017 45 270 2.0 3.0 0.00 0.00 0.00 19 1012.1
20230206052017 45 293 3.0 6.0 0.00 0.00 0.00 20 1011.8
20230206051017 43 293 7.0 10.0 0.00 0.00 0.00 22 1011.4
20230206050057 39 270 4.0 6.0 0.00 0.00 0.00 27 1010.8
20230206045017 34 270 3.0 6.0 0.00 0.00 0.00 36 1009.9
20230206044017 30 270 2.0 2.0 0.00 0.00 0.00 44 1008.9
20230206043016 28 142 0.0 0.0 0.00 0.00 0.00 60 1008.6
20230206042017 28 48 0.0 0.0 0.00 0.00 0.00 60 1008.2
20230206041037 29 54 0.0 0.0 0.00 0.00 0.00 60 1008.2
20230206040016 29 45 1.0 3.0 0.00 0.00 0.00 60 1008.2
20230206035016 29 45 1.0 2.0 0.00 0.00 0.00 60 1008.0
20230206034017 29 55 0.0 0.0 0.00 0.00 0.00 60 1007.7
20230206033017 29 45 2.0 2.0 0.00 0.00 0.00 59 1007.8
20230206032017 30 55 0.0 0.0 0.00 0.00 0.00 58 1007.8
20230206031017 30 55 0.0 0.0 0.00 0.00 0.00 58 1007.7
20230206030017 30 55 0.0 0.0 0.00 0.00 0.00 57 1007.4
20230206025016 31 55 0.0 0.0 0.00 0.00 0.00 57 1007.6
20230206024017 31 55 0.0 0.0 0.00 0.00 0.00 56 1007.5
20230206023016 32 55 0.0 0.0 0.00 0.00 0.00 55 1007.9
20230206022017 32 55 0.0 0.0 0.00 0.00 0.00 54 1008.1
20230206021017 33 57 0.0 0.0 0.00 0.00 0.00 53 1008.1
20230206020039 34 57 0.0 0.0 0.00 0.00 0.00 51 1007.9
20230206015017 34 57 0.0 0.0 0.00 0.00 0.00 51 1008.3
20230206014017 35 57 0.0 0.0 0.00 0.00 0.00 50 1008.4
20230206013017 35 68 0.0 2.0 0.00 0.00 0.00 49 1008.6
20230206012018 36 57 0.0 0.0 0.00 0.00 0.00 48 1008.6
20230206011017 37 57 0.0 0.0 0.00 0.00 0.00 46 1008.8
20230206010017 38 68 0.0 2.0 0.00 0.00 0.00 45 1008.9
20230206005017 39 68 0.0 1.0 0.00 0.00 0.00 45 1009.0
20230206004016 40 45 1.0 3.0 0.00 0.00 0.00 42 1009.3
20230206003037 41 45 1.0 2.0 0.00 0.00 0.00 42 1009.5
20230206002017 42 39 0.0 0.0 0.00 0.00 0.00 39 1009.6
20230206001016 42 26 0.0 0.0 0.00 0.00 0.00 38 1009.4
20230206000016 43 26 0.0 0.0 0.00 0.00 0.00 37 1009.6
20230205235116 43 23 1.0 2.0 0.00 0.00 0.00 37 1009.5
20230205235038 44 68 1.0 2.0 0.00 0.00 0.00 36 1010.3
20230205222016 45 113 2.0 4.0 0.00 0.00 0.00 33 1011.3
20230205221016 45 68 3.0 4.0 0.00 0.00 0.00 33 1011.7
20230205220016 45 113 1.0 3.0 0.00 0.00 0.00 34 1011.8
20230205215016 45 90 0.0 1.0 0.00 0.00 0.00 33 1011.9
20230205214017 45 45 3.0 4.0 0.00 0.00 0.00 33 1012.2
20230205213016 45 68 1.0 4.0 0.00 0.00 0.00 33 1012.3
20230205212016 45 45 2.0 3.0 0.00 0.00 0.00 33 1012.5
20230205211016 46 90 5.0 8.0 0.00 0.00 0.00 34 1012.8
20230205210017 46 90 4.0 7.0 0.00 0.00 0.00 35 1013.2
20230205205016 46 68 3.0 5.0 0.00 0.00 0.00 34 1012.9
20230205204016 47 90 4.0 6.0 0.00 0.00 0.00 32 1013.6
20230205203016 47 45 2.0 5.0 0.00 0.00 0.00 31 1013.8
20230205202016 47 45 0.0 1.0 0.00 0.00 0.00 31 1014.1
20230205201036 47 90 4.0 6.0 0.00 0.00 0.00 30 1014.3
20230205200016 46 68 4.0 5.0 0.00 0.00 0.00 29 1014.6
20230205195016 46 113 0.0 3.0 0.00 0.00 0.00 30 1014.9
20230205194016 46 45 3.0 5.0 0.00 0.00 0.00 28 1015.1
20230205193016 46 68 3.0 5.0 0.00 0.00 0.00 28 1015.4
20230205192016 46 68 3.0 5.0 0.00 0.00 0.00 27 1016.0
20230205191016 46 90 3.0 4.0 0.00 0.00 0.00 27 1016.2
20230205190018 46 68 4.0 6.0 0.00 0.00 0.00 29 1016.6
20230205185016 45 90 4.0 6.0 0.00 0.00 0.00 29 1016.8
20230205184016 45 146 0.0 0.0 0.00 0.00 0.00 30 1017.2
20230205183016 44 90 1.0 2.0 0.00 0.00 0.00 30 1017.1
20230205182016 44 23 1.0 3.0 0.00 0.00 0.00 29 1017.7
20230205181036 43 90 3.0 5.0 0.00 0.00 0.00 33 1017.7
20230205180016 43 90 2.0 5.0 0.00 0.00 0.00 32 1018.1
20230205175016 43 113 1.0 3.0 0.00 0.00 0.00 30 1017.7
20230205174016 42 158 3.0 5.0 0.00 0.00 0.00 33 1018.2
20230205173016 41 158 2.0 4.0 0.00 0.00 0.00 36 1018.4
20230205172016 40 173 0.0 0.0 0.00 0.00 0.00 36 1018.7
20230205171038 39 117 0.0 0.0 0.00 0.00 0.00 36 1018.7
20230205170016 39 119 0.0 0.0 0.00 0.00 0.00 37 1018.8
20230205165016 38 0 0.0 0.0 0.00 0.00 0.00 39 1018.9
20230205164016 37 128 0.0 0.0 0.00 0.00 0.00 41 1018.8
20230205163016 36 129 0.0 0.0 0.00 0.00 0.00 40 1018.7
20230205162016 35 24 0.0 0.0 0.00 0.00 0.00 43 1018.6